Time;durP1;ratioP1;P1;durP2;ratioP2;P2;SDS_P1;SDS_P2;PMS_P1;PMS_P2;Temp;Humidity;BMP_temperature;BMP_pressure;BME280_temperature;BME280_humidity;BME280_pressure;Samples;Min_cycle;Max_cycle;Signal;HPM_P1;HPM_P2
2022/08/10 00:01:55;;;;;;;;;;;21.00;99.90;;;;;;8394859;28;19934;-69
2022/08/10 00:05:57;;;;;;;;;;;21.00;99.90;;;;;;8411644;28;20002;-69
2022/08/10 00:09:59;;;;;;;;;;;20.90;99.90;;;;;;8389072;28;19932;-70
2022/08/10 00:14:00;;;;;;;;;;;20.90;99.90;;;;;;8415112;28;20348;-69
2022/08/10 00:18:02;;;;;;;;;;;20.80;99.90;;;;;;8415656;28;20255;-69
2022/08/10 00:22:04;;;;;;;;;;;20.70;99.90;;;;;;8416716;28;19936;-69
2022/08/10 00:26:05;;;;;;;;;;;20.70;99.90;;;;;;8430261;28;19923;-69
2022/08/10 00:30:07;;;;;;;;;;;20.70;99.90;;;;;;8396410;28;19928;-69
2022/08/10 00:34:09;;;;;;;;;;;20.60;99.90;;;;;;8412806;28;19939;-69
2022/08/10 00:38:10;;;;;;;;;;;20.50;99.90;;;;;;8396658;28;19931;-69
2022/08/10 00:42:13;;;;;;;;;;;20.50;99.90;;;;;;8414447;28;20359;-70
2022/08/10 00:46:15;;;;;;;;;;;20.50;99.90;;;;;;8414303;28;19932;-69
2022/08/10 00:50:19;;;;;;;;;;;20.40;99.90;;;;;;8409487;28;19932;-69
2022/08/10 00:54:21;;;;;;;;;;;20.40;99.90;;;;;;8417034;28;20676;-69
2022/08/10 00:58:25;;;;;;;;;;;20.30;99.90;;;;;;8389101;28;19928;-69
2022/08/10 01:02:28;;;;;;;;;;;20.20;99.90;;;;;;8398053;28;19928;-69
2022/08/10 01:06:48;;;;;;;;;;;20.20;99.90;;;;;;8412702;28;19927;-69
2022/08/10 01:10:54;;;;;;;;;;;20.10;99.90;;;;;;8388894;28;19933;-69
2022/08/10 01:14:59;;;;;;;;;;;20.10;99.90;;;;;;8396319;28;19971;-69
2022/08/10 01:19:10;;;;;;;;;;;20.00;99.90;;;;;;8423033;28;19933;-69
2022/08/10 01:23:27;;;;;;;;;;;20.00;99.90;;;;;;8397149;28;19933;-69
2022/08/10 01:27:28;;;;;;;;;;;19.90;99.90;;;;;;8399346;28;19947;-69
2022/08/10 01:31:32;;;;;;;;;;;19.90;99.90;;;;;;8406713;28;19932;-69
2022/08/10 01:35:36;;;;;;;;;;;19.90;99.90;;;;;;8404123;28;19924;-69
2022/08/10 01:39:40;;;;;;;;;;;19.80;99.90;;;;;;8414806;28;19931;-70
2022/08/10 01:43:45;;;;;;;;;;;19.80;99.90;;;;;;8433773;28;19928;-69
2022/08/10 01:52:17;;;;;;;;;;;19.70;99.90;;;;;;8399891;28;20015;-69
2022/08/10 01:56:21;;;;;;;;;;;19.60;99.90;;;;;;8401175;28;19931;-69
2022/08/10 02:00:24;;;;;;;;;;;19.60;99.90;;;;;;8436105;28;21231;-69
2022/08/10 02:04:26;;;;;;;;;;;19.50;99.90;;;;;;8394812;28;19928;-69
2022/08/10 02:08:29;;;;;;;;;;;19.40;99.90;;;;;;8428769;28;19924;-69
2022/08/10 02:12:32;;;;;;;;;;;19.40;99.90;;;;;;8420259;28;19927;-69
2022/08/10 02:16:35;;;;;;;;;;;19.40;99.90;;;;;;8394145;28;19925;-69
2022/08/10 02:20:40;;;;;;;;;;;19.30;99.90;;;;;;8385788;28;19924;-69
2022/08/10 02:24:42;;;;;;;;;;;19.30;99.90;;;;;;8405116;28;19924;-69
2022/08/10 02:28:44;;;;;;;;;;;19.30;99.90;;;;;;8414198;28;20310;-69
2022/08/10 02:32:46;;;;;;;;;;;19.30;99.90;;;;;;8407969;28;20263;-69
2022/08/10 02:36:54;;;;;;;;;;;19.20;99.90;;;;;;8413881;28;20337;-69
2022/08/10 02:41:00;;;;;;;;;;;19.10;99.90;;;;;;8412042;28;19932;-70
2022/08/10 02:45:28;;;;;;;;;;;19.10;99.90;;;;;;8427166;28;19982;-69
2022/08/10 02:49:35;;;;;;;;;;;19.10;99.90;;;;;;8413542;28;20034;-69
2022/08/10 02:53:49;;;;;;;;;;;19.10;99.90;;;;;;8409691;27;19924;-69
2022/08/10 02:57:59;;;;;;;;;;;19.00;99.90;;;;;;8395883;28;19924;-69
2022/08/10 03:02:31;;;;;;;;;;;19.00;99.90;;;;;;8420320;28;20010;-69
2022/08/10 03:06:35;;;;;;;;;;;19.00;99.90;;;;;;8417256;28;19940;-69
2022/08/10 03:10:39;;;;;;;;;;;19.00;99.90;;;;;;8412773;28;19977;-70
2022/08/10 03:14:41;;;;;;;;;;;18.90;99.90;;;;;;8425640;28;19952;-69
2022/08/10 03:18:44;;;;;;;;;;;18.90;99.90;;;;;;8398750;28;19928;-69
2022/08/10 03:22:49;;;;;;;;;;;18.80;99.90;;;;;;8414533;28;19943;-69
2022/08/10 03:26:52;;;;;;;;;;;18.80;99.90;;;;;;8421871;28;19939;-69
2022/08/10 03:30:54;;;;;;;;;;;18.70;99.90;;;;;;8401845;28;20271;-69
2022/08/10 03:34:57;;;;;;;;;;;18.70;99.90;;;;;;8420514;28;19944;-69
2022/08/10 03:38:59;;;;;;;;;;;18.70;99.90;;;;;;8412959;28;19948;-69
2022/08/10 03:43:02;;;;;;;;;;;18.60;99.90;;;;;;8409598;28;20346;-69
2022/08/10 03:47:04;;;;;;;;;;;18.50;99.90;;;;;;8423035;28;19939;-69
2022/08/10 03:51:10;;;;;;;;;;;18.50;99.90;;;;;;8419364;28;20367;-69
2022/08/10 03:55:12;;;;;;;;;;;18.40;99.90;;;;;;8412336;28;19932;-69
2022/08/10 03:59:35;;;;;;;;;;;18.40;99.90;;;;;;8413912;28;19979;-69
2022/08/10 04:03:37;;;;;;;;;;;18.40;99.90;;;;;;8406711;28;20265;-69
2022/08/10 04:07:39;;;;;;;;;;;18.30;99.90;;;;;;8400699;28;19931;-69
2022/08/10 04:11:41;;;;;;;;;;;18.30;99.90;;;;;;8440893;28;20414;-69
2022/08/10 04:15:42;;;;;;;;;;;18.30;99.90;;;;;;8406407;28;19925;-69
2022/08/10 04:19:46;;;;;;;;;;;18.30;99.90;;;;;;8420466;28;20240;-69
2022/08/10 04:23:49;;;;;;;;;;;18.30;99.90;;;;;;8418141;28;19928;-69
2022/08/10 04:27:54;;;;;;;;;;;18.20;99.90;;;;;;8393000;28;19930;-69
2022/08/10 04:31:55;;;;;;;;;;;18.30;99.90;;;;;;8406353;28;19966;-69
2022/08/10 04:35:58;;;;;;;;;;;18.20;99.90;;;;;;8412405;28;19951;-69
2022/08/10 04:40:00;;;;;;;;;;;18.20;99.90;;;;;;8407240;28;20012;-69
2022/08/10 04:44:01;;;;;;;;;;;18.20;99.90;;;;;;8404106;28;19935;-69
2022/08/10 04:48:03;;;;;;;;;;;18.30;99.90;;;;;;8412025;28;19985;-69
2022/08/10 04:52:05;;;;;;;;;;;18.30;99.90;;;;;;8401221;28;20872;-69
2022/08/10 04:56:07;;;;;;;;;;;18.30;99.90;;;;;;8411374;28;19924;-69
2022/08/10 05:00:09;;;;;;;;;;;18.40;99.90;;;;;;8433240;28;19933;-69
2022/08/10 05:04:19;;;;;;;;;;;18.40;99.90;;;;;;8417717;28;19932;-69
2022/08/10 05:08:36;;;;;;;;;;;18.50;99.90;;;;;;8443743;28;19951;-69
2022/08/10 05:12:37;;;;;;;;;;;18.50;99.90;;;;;;8407711;28;19924;-69
2022/08/10 05:16:39;;;;;;;;;;;18.60;99.90;;;;;;8444673;28;19930;-69
2022/08/10 05:20:41;;;;;;;;;;;18.60;99.90;;;;;;8411891;28;19959;-69
2022/08/10 05:24:44;;;;;;;;;;;18.60;99.90;;;;;;8418654;28;19924;-69
2022/08/10 05:28:45;;;;;;;;;;;18.70;99.90;;;;;;8442539;27;19924;-69
2022/08/10 05:32:48;;;;;;;;;;;18.80;99.90;;;;;;8407887;27;19925;-69
2022/08/10 05:36:58;;;;;;;;;;;18.80;99.90;;;;;;8420131;28;19932;-69
2022/08/10 05:41:01;;;;;;;;;;;18.90;99.90;;;;;;8425742;28;19931;-69
2022/08/10 05:45:03;;;;;;;;;;;18.90;99.90;;;;;;8422453;28;19929;-69
2022/08/10 05:49:04;;;;;;;;;;;19.00;99.90;;;;;;8443424;28;19951;-69
2022/08/10 05:53:06;;;;;;;;;;;19.00;99.90;;;;;;8389193;28;20671;-69
2022/08/10 05:57:28;;;;;;;;;;;19.10;99.90;;;;;;8388835;28;19936;-69
2022/08/10 06:01:31;;;;;;;;;;;19.20;99.90;;;;;;8391618;28;19939;-69
2022/08/10 06:05:35;;;;;;;;;;;19.20;99.90;;;;;;8378457;28;19928;-69
2022/08/10 06:09:37;;;;;;;;;;;19.30;99.90;;;;;;8393901;28;19928;-69
2022/08/10 06:18:14;;;;;;;;;;;19.30;99.90;;;;;;8387136;28;20323;-69
2022/08/10 06:22:16;;;;;;;;;;;19.40;99.90;;;;;;8381031;28;19986;-69
2022/08/10 06:26:18;;;;;;;;;;;19.40;99.90;;;;;;8384584;28;19924;-69
2022/08/10 06:30:23;;;;;;;;;;;19.40;99.90;;;;;;8385296;28;20380;-69
2022/08/10 06:34:26;;;;;;;;;;;19.50;99.90;;;;;;8391156;28;19933;-69
2022/08/10 06:38:30;;;;;;;;;;;19.60;99.90;;;;;;8385243;28;19932;-69
2022/08/10 06:42:34;;;;;;;;;;;19.70;99.90;;;;;;8374234;28;19951;-69
2022/08/10 06:46:38;;;;;;;;;;;19.80;99.90;;;;;;8386119;28;20020;-69
2022/08/10 06:50:44;;;;;;;;;;;19.90;99.90;;;;;;8389449;28;20410;-69
2022/08/10 06:55:00;;;;;;;;;;;20.00;99.90;;;;;;8394654;28;20008;-69
2022/08/10 06:59:01;;;;;;;;;;;20.10;99.90;;;;;;8381905;28;19938;-69
2022/08/10 07:03:05;;;;;;;;;;;20.30;99.90;;;;;;8391479;28;19935;-69
2022/08/10 07:07:12;;;;;;;;;;;20.30;99.90;;;;;;8384607;28;19939;-69
2022/08/10 07:11:14;;;;;;;;;;;20.50;99.90;;;;;;8384771;28;20601;-69
2022/08/10 07:15:17;;;;;;;;;;;20.60;99.90;;;;;;8388098;28;19925;-69
2022/08/10 07:19:19;;;;;;;;;;;20.70;99.90;;;;;;8385305;28;19931;-69
2022/08/10 07:23:22;;;;;;;;;;;20.80;99.90;;;;;;8384756;28;20248;-69
2022/08/10 07:27:44;;;;;;;;;;;20.90;99.90;;;;;;8386253;28;20445;-69
2022/08/10 07:32:00;;;;;;;;;;;21.10;99.90;;;;;;8382328;28;19994;-69
2022/08/10 07:36:02;;;;;;;;;;;21.20;99.90;;;;;;8387520;28;19928;-69
2022/08/10 07:40:04;;;;;;;;;;;21.20;99.90;;;;;;8395961;28;20442;-69
2022/08/10 07:44:07;;;;;;;;;;;21.30;99.90;;;;;;8387897;28;19928;-69
2022/08/10 07:48:12;;;;;;;;;;;21.40;99.90;;;;;;8394519;28;19929;-69
2022/08/10 07:52:14;;;;;;;;;;;21.50;99.90;;;;;;8390215;28;19935;-69
2022/08/10 07:56:16;;;;;;;;;;;21.60;99.90;;;;;;8384851;28;19924;-69
2022/08/10 08:00:38;;;;;;;;;;;21.70;99.90;;;;;;8380909;28;20012;-69
2022/08/10 08:04:40;;;;;;;;;;;21.90;99.90;;;;;;8388063;28;19924;-69
2022/08/10 08:08:43;;;;;;;;;;;22.00;99.90;;;;;;8380933;28;19939;-69
2022/08/10 08:12:45;;;;;;;;;;;22.10;99.90;;;;;;8382587;28;19983;-69
2022/08/10 08:16:49;;;;;;;;;;;22.20;99.90;;;;;;8383805;28;19932;-69
2022/08/10 08:20:51;;;;;;;;;;;22.30;99.90;;;;;;8381772;28;19928;-69
2022/08/10 08:24:54;;;;;;;;;;;22.40;99.90;;;;;;8387626;28;19990;-69
2022/08/10 08:28:56;;;;;;;;;;;22.50;99.90;;;;;;8387109;28;20402;-69
2022/08/10 08:33:09;;;;;;;;;;;22.70;99.90;;;;;;8391494;28;19923;-70
2022/08/10 08:37:13;;;;;;;;;;;22.80;99.90;;;;;;8385788;28;20577;-69
2022/08/10 08:41:35;;;;;;;;;;;22.90;99.90;;;;;;8391152;28;20016;-69
2022/08/10 08:45:55;;;;;;;;;;;23.00;99.90;;;;;;8396051;28;19959;-69
2022/08/10 08:50:10;;;;;;;;;;;23.10;99.90;;;;;;8391887;28;19946;-69
2022/08/10 08:54:12;;;;;;;;;;;23.20;99.90;;;;;;8387926;28;19935;-70
2022/08/10 08:58:32;;;;;;;;;;;23.30;99.90;;;;;;8392566;28;19936;-69
2022/08/10 09:02:52;;;;;;;;;;;23.40;99.90;;;;;;8388524;28;19924;-70
2022/08/10 09:06:55;;;;;;;;;;;23.50;99.90;;;;;;8391738;28;19932;-69
2022/08/10 09:10:59;;;;;;;;;;;23.70;99.90;;;;;;8380419;28;19924;-69
2022/08/10 09:15:10;;;;;;;;;;;23.80;99.90;;;;;;8388157;28;19925;-70
2022/08/10 09:19:37;;;;;;;;;;;24.00;99.90;;;;;;8391183;28;19950;-69
2022/08/10 09:23:40;;;;;;;;;;;24.10;99.90;;;;;;8391435;28;19931;-69
2022/08/10 09:28:02;;;;;;;;;;;24.20;99.90;;;;;;8396076;28;19948;-70
2022/08/10 09:32:08;;;;;;;;;;;24.40;99.90;;;;;;8393532;28;19936;-69
2022/08/10 09:36:35;;;;;;;;;;;24.50;99.90;;;;;;8396864;28;20358;-69
2022/08/10 09:40:43;;;;;;;;;;;24.60;99.90;;;;;;8381621;28;19929;-69
2022/08/10 09:45:08;;;;;;;;;;;24.70;99.90;;;;;;8393155;28;19924;-69
2022/08/10 09:49:19;;;;;;;;;;;24.80;99.90;;;;;;8390109;28;19932;-69
2022/08/10 09:53:36;;;;;;;;;;;24.90;99.90;;;;;;8403204;27;19932;-69
2022/08/10 09:57:41;;;;;;;;;;;25.00;99.90;;;;;;8393482;28;20379;-69
2022/08/10 10:01:58;;;;;;;;;;;25.10;99.90;;;;;;8389467;28;19982;-69
2022/08/10 10:06:31;;;;;;;;;;;25.20;99.90;;;;;;8391704;28;19931;-69
2022/08/10 10:10:37;;;;;;;;;;;25.30;99.90;;;;;;8369917;28;20692;-69
2022/08/10 10:15:19;;;;;;;;;;;25.40;99.90;;;;;;8394118;28;20401;-69
2022/08/10 10:19:34;;;;;;;;;;;25.50;99.90;;;;;;8389483;28;19928;-69
2022/08/10 10:24:00;;;;;;;3.85;1.70;;;25.60;99.90;;;;;;8391716;28;19929;-69
2022/08/10 10:28:33;;;;;;;4.03;1.52;;;25.70;99.90;;;;;;8387928;28;20045;-69
2022/08/10 10:33:08;;;;;;;4.43;1.63;;;25.80;99.90;;;;;;8397960;27;20052;-69
2022/08/10 10:37:16;;;;;;;4.47;1.33;;;25.90;99.90;;;;;;8392858;28;20603;-69
2022/08/10 10:41:41;;;;;;;2.97;1.40;;;26.10;99.90;;;;;;8386280;28;20052;-69
2022/08/10 10:46:12;;;;;;;;;;;26.20;99.90;;;;;;8381737;28;20131;-69
2022/08/10 10:50:21;;;;;;;;;;;26.40;99.90;;;;;;8384182;28;20360;-69
2022/08/10 10:54:38;;;;;;;;;;;26.50;99.90;;;;;;8384908;28;19935;-69
2022/08/10 10:58:58;;;;;;;;;;;26.50;99.90;;;;;;8389269;28;20438;-69
2022/08/10 11:03:05;;;;;;;;;;;26.60;99.90;;;;;;8384875;28;19935;-69
2022/08/10 11:07:18;;;;;;;;;;;26.60;99.90;;;;;;8388262;28;19928;-69
2022/08/10 11:11:27;;;;;;;;;;;26.70;99.90;;;;;;8389468;28;19920;-69
2022/08/10 11:15:54;;;;;;;;;;;26.80;99.90;;;;;;8392736;28;19955;-69
2022/08/10 11:20:09;;;;;;;;;;;26.90;99.90;;;;;;8382052;28;19928;-69
2022/08/10 11:24:10;;;;;;;;;;;27.00;99.90;;;;;;8386161;28;20244;-69
2022/08/10 11:28:35;;;;;;;;;;;27.10;99.90;;;;;;8379029;28;20510;-69
2022/08/10 11:32:50;;;;;;;;;;;27.10;99.90;;;;;;8393272;28;19934;-69
2022/08/10 11:36:58;;;;;;;;;;;27.20;99.90;;;;;;8385996;28;19928;-69
2022/08/10 11:41:03;;;;;;;;;;;27.30;99.90;;;;;;8391924;28;19939;-69
2022/08/10 11:45:16;;;;;;;;;;;27.50;99.90;;;;;;8386040;28;20265;-69
2022/08/10 11:49:29;;;;;;;;;;;27.70;99.90;;;;;;8388237;28;19939;-69
2022/08/10 11:53:35;;;;;;;;;;;27.80;99.90;;;;;;8388644;28;25121;-69
2022/08/10 11:57:37;;;;;;;;;;;27.90;99.90;;;;;;8384814;28;20367;-69
2022/08/10 12:01:56;;;;;;;;;;;27.90;99.90;;;;;;8398374;28;19960;-69
2022/08/10 12:05:58;;;;;;;;;;;27.90;99.90;;;;;;8388591;28;19955;-69
2022/08/10 12:10:00;;;;;;;;;;;28.00;99.90;;;;;;8386895;28;24077;-69
2022/08/10 12:14:15;;;;;;;;;;;27.90;99.90;;;;;;8388407;28;19983;-69
2022/08/10 12:18:27;;;;;;;;;;;28.00;99.90;;;;;;8369516;28;20371;-69
2022/08/10 12:22:49;;;;;;;;;;;28.10;99.90;;;;;;8376450;28;19921;-69
2022/08/10 12:27:09;;;;;;;;;;;28.10;99.90;;;;;;8388247;28;19931;-69
2022/08/10 12:31:15;;;;;;;;;;;28.20;99.90;;;;;;8386755;28;20023;-69
2022/08/10 12:35:16;;;;;;;;;;;28.20;99.90;;;;;;8385793;28;19924;-69
2022/08/10 12:39:26;;;;;;;;;;;28.30;99.90;;;;;;8388007;28;20372;-69
2022/08/10 12:43:31;;;;;;;;;;;28.30;99.90;;;;;;8389655;28;19924;-69
2022/08/10 12:48:04;;;;;;;;;;;28.30;99.90;;;;;;8385303;28;20363;-69
2022/08/10 12:52:35;;;;;;;;;;;28.30;99.90;;;;;;8387763;28;24079;-69
2022/08/10 12:56:42;;;;;;;;;;;28.20;99.80;;;;;;8335641;28;20342;-69
2022/08/10 13:00:44;;;;;;;;;;;28.20;99.80;;;;;;8388810;28;19928;-69
2022/08/10 13:05:07;;;;;;;;;;;28.30;99.60;;;;;;8389673;28;20038;-69
2022/08/10 13:09:09;;;;;;;;;;;28.30;99.50;;;;;;8389813;28;19966;-69
2022/08/10 13:13:14;;;;;;;;;;;28.40;99.10;;;;;;8399102;28;20335;-69
2022/08/10 13:17:24;;;;;;;;;;;28.50;99.20;;;;;;8387185;28;24070;-69
2022/08/10 13:21:41;;;;;;;;;;;28.50;99.00;;;;;;8377881;28;19979;-69
2022/08/10 13:25:44;;;;;;;;;;;28.50;98.10;;;;;;8394686;28;19928;-69
2022/08/10 13:29:53;;;;;;;;;;;28.50;98.10;;;;;;8395371;28;20379;-69
2022/08/10 13:33:59;;;;;;;;;;;28.60;98.10;;;;;;8391921;28;19947;-69
2022/08/10 13:38:21;;;;;;;;;;;28.70;98.10;;;;;;8392755;28;20356;-69
2022/08/10 13:42:24;;;;;;;;;;;28.70;98.00;;;;;;8406010;27;19949;-69
2022/08/10 13:46:36;;;;;;;;;;;28.70;97.80;;;;;;8393071;28;19919;-69
2022/08/10 13:50:39;;;;;;;;;;;28.70;97.60;;;;;;8393660;28;19924;-69
2022/08/10 13:54:41;;;;;;;;;;;28.80;97.60;;;;;;8391531;28;19920;-69
2022/08/10 13:58:46;;;;;;;;;;;28.80;97.40;;;;;;8387699;28;19929;-69
2022/08/10 14:02:59;;;;;;;;;;;28.90;97.20;;;;;;8388740;28;19921;-69
2022/08/10 14:07:02;;;;;;;;;;;28.90;96.80;;;;;;8405943;28;19920;-69
2022/08/10 14:11:05;;;;;;;;;;;28.90;96.70;;;;;;8392432;28;25121;-69
2022/08/10 14:15:13;;;;;;;;;;;28.90;96.50;;;;;;8388418;28;20283;-69
2022/08/10 14:19:18;;;;;;;;;;;28.90;96.20;;;;;;8390039;28;19940;-69
2022/08/10 14:23:20;;;;;;;;;;;29.00;96.20;;;;;;8392837;28;19920;-69
2022/08/10 14:27:22;;;;;;;;;;;29.00;95.70;;;;;;8389820;28;19924;-69
2022/08/10 14:31:29;;;;;;;;;;;29.00;95.30;;;;;;8392235;28;19928;-70
2022/08/10 14:35:33;;;;;;;;;;;29.00;95.40;;;;;;8389753;28;19927;-69
2022/08/10 14:40:00;;;;;;;;;;;29.10;95.10;;;;;;8389578;28;19951;-70
2022/08/10 14:44:06;;;;;;;;;;;29.10;95.00;;;;;;8392059;28;19931;-69
2022/08/10 14:48:21;;;;;;;;;;;29.10;94.60;;;;;;8391469;28;19920;-69
2022/08/10 14:52:24;;;;;;;;;;;29.20;94.40;;;;;;8390602;28;19924;-69
2022/08/10 14:56:30;;;;;;;;;;;29.20;94.20;;;;;;8387386;28;19924;-69
2022/08/10 15:00:36;;;;;;;;;;;29.30;94.30;;;;;;8378365;28;20280;-69
2022/08/10 15:04:43;;;;;;;;;;;29.30;94.00;;;;;;8390734;28;20820;-69
2022/08/10 15:08:45;;;;;;;;;;;29.50;94.00;;;;;;8384367;28;19935;-69
2022/08/10 15:12:48;;;;;;;;;;;29.50;93.90;;;;;;8390847;28;19955;-69
2022/08/10 15:16:56;;;;;;;;;;;29.60;93.70;;;;;;8387528;28;19927;-69
2022/08/10 15:21:00;;;;;;;;;;;29.60;93.50;;;;;;8388404;28;19932;-69
2022/08/10 15:25:05;;;;;;;;;;;29.60;93.10;;;;;;8404887;28;19920;-69
2022/08/10 15:29:10;;;;;;;;;;;29.60;92.90;;;;;;8386274;28;19928;-70
2022/08/10 15:38:02;;;;;;;;;;;29.70;92.50;;;;;;8379568;28;19920;-70
2022/08/10 15:42:03;;;;;;;;;;;29.80;92.20;;;;;;8386764;28;19939;-70
2022/08/10 15:46:13;;;;;;;;;;;29.80;92.20;;;;;;8389787;28;20323;-70
2022/08/10 15:50:25;;;;;;;;;;;29.90;92.10;;;;;;8383788;28;19964;-69
2022/08/10 15:54:30;;;;;;;;;;;30.20;91.60;;;;;;8392021;28;19924;-70
2022/08/10 15:58:34;;;;;;;;;;;30.50;91.40;;;;;;8385987;28;20010;-70
2022/08/10 16:03:08;;;;;;;2.38;1.20;;;30.90;91.10;;;;;;8390345;28;20745;-70
2022/08/10 16:07:32;;;;;;;;;;;31.50;90.70;;;;;;8384011;28;20051;-70
2022/08/10 16:11:53;;;;;;;;;;;32.00;91.50;;;;;;8386271;28;19921;-69
2022/08/10 16:15:57;;;;;;;;;;;32.60;91.90;;;;;;8387910;28;19931;-70
2022/08/10 16:20:00;;;;;;;;;;;33.00;92.30;;;;;;8384526;28;19925;-70
2022/08/10 16:24:04;;;;;;;;;;;33.30;92.80;;;;;;8389208;28;19920;-69
2022/08/10 16:28:16;;;;;;;;;;;33.50;93.00;;;;;;8385177;28;19924;-70
2022/08/10 16:32:25;;;;;;;;;;;33.80;93.20;;;;;;8384575;28;20422;-70
2022/08/10 16:36:31;;;;;;;;;;;34.00;92.70;;;;;;8367218;28;19926;-70
2022/08/10 16:40:33;;;;;;;;;;;34.10;92.30;;;;;;8395196;28;19924;-71
2022/08/10 16:44:37;;;;;;;;;;;34.20;91.90;;;;;;8387027;28;19924;-70
2022/08/10 16:48:40;;;;;;;;;;;34.20;91.20;;;;;;8367455;28;19925;-70
2022/08/10 16:52:51;;;;;;;;;;;34.30;90.70;;;;;;8385730;28;19924;-70
2022/08/10 16:56:57;;;;;;;;;;;34.30;90.30;;;;;;8390441;28;19935;-70
2022/08/10 17:01:01;;;;;;;;;;;34.30;89.90;;;;;;8391312;28;19924;-70
2022/08/10 17:05:04;;;;;;;;;;;34.20;88.70;;;;;;8395163;28;20022;-70
2022/08/10 17:09:12;;;;;;;;;;;34.20;87.50;;;;;;8395511;28;19920;-70
2022/08/10 17:13:14;;;;;;;;;;;34.00;86.10;;;;;;8392771;28;20339;-70
2022/08/10 17:17:20;;;;;;;;;;;33.90;85.10;;;;;;8393750;28;19932;-70
2022/08/10 17:21:26;;;;;;;;;;;33.60;84.00;;;;;;8398608;28;19920;-70
2022/08/10 17:25:30;;;;;;;;;;;33.40;82.80;;;;;;8391564;28;19920;-70
2022/08/10 17:29:49;;;;;;;;;;;33.10;82.10;;;;;;8393840;28;19920;-70
2022/08/10 17:34:29;;;;;;;;;;;32.90;81.20;;;;;;8380629;28;19924;-70
2022/08/10 17:38:32;;;;;;;;;;;32.60;80.30;;;;;;8311439;28;19979;-70
2022/08/10 17:42:34;;;;;;;;;;;32.20;79.50;;;;;;8347513;28;20260;-70
2022/08/10 17:46:37;;;;;;;;;;;32.00;78.40;;;;;;8389174;28;19928;-69
2022/08/10 17:50:40;;;;;;;;;;;31.70;77.80;;;;;;8393893;28;20276;-70
2022/08/10 17:54:45;;;;;;;;;;;31.40;77.50;;;;;;8389015;28;20414;-69
2022/08/10 17:58:52;;;;;;;;;;;31.20;77.00;;;;;;8388292;28;19935;-70
2022/08/10 18:02:54;;;;;;;;;;;31.00;76.90;;;;;;8374523;28;19924;-69
2022/08/10 18:06:57;;;;;;;;;;;30.90;76.80;;;;;;8385336;28;19920;-70
2022/08/10 18:11:00;;;;;;;;;;;30.70;76.50;;;;;;8390426;28;19931;-70
2022/08/10 18:15:04;;;;;;;;;;;30.60;76.10;;;;;;8387403;28;20394;-70
2022/08/10 18:19:07;;;;;;;;;;;30.40;75.90;;;;;;8376387;28;19931;-70
2022/08/10 18:23:10;;;;;;;;;;;30.30;75.70;;;;;;8396283;28;20216;-70
2022/08/10 18:27:13;;;;;;;;;;;30.20;75.70;;;;;;8390184;28;20260;-70
2022/08/10 18:31:17;;;;;;;;;;;30.10;75.80;;;;;;8391410;28;19928;-69
2022/08/10 18:35:19;;;;;;;;;;;30.00;75.70;;;;;;8390971;28;19920;-70
2022/08/10 18:39:24;;;;;;;;;;;29.90;75.70;;;;;;8388941;28;19920;-70
2022/08/10 18:43:45;;;;;;;;;;;29.70;75.60;;;;;;8387476;28;19926;-70
2022/08/10 18:48:11;;;;;;;;;;;29.60;75.40;;;;;;8394244;28;19967;-69
2022/08/10 18:52:14;;;;;;;;;;;29.50;76.40;;;;;;8387465;28;20390;-70
2022/08/10 18:56:34;;;;;;;;;;;29.30;75.60;;;;;;8392112;28;19986;-70
2022/08/10 19:00:54;;;;;;;;;;;29.30;75.80;;;;;;8393644;28;20373;-69
2022/08/10 19:04:59;;;;;;;;;;;29.20;75.90;;;;;;8391535;28;20031;-69
2022/08/10 19:09:19;;;;;;;;;;;29.00;75.80;;;;;;8384584;28;19924;-69
2022/08/10 19:13:44;;;;;;;;;;;28.90;75.80;;;;;;8389025;28;20013;-70
2022/08/10 19:17:52;;;;;;;;;;;28.70;75.90;;;;;;8385311;28;20303;-70
2022/08/10 19:22:24;;;;;;;;;;;28.60;76.00;;;;;;8387004;28;19980;-69
2022/08/10 19:26:40;;;;;;;;;;;28.50;76.20;;;;;;8383897;28;19998;-70
2022/08/10 19:30:52;;;;;;;;;;;28.30;76.30;;;;;;8384589;28;19924;-69
2022/08/10 19:35:00;;;;;;;;;;;28.20;76.40;;;;;;8386985;28;19959;-70
2022/08/10 19:39:20;;;;;;;;;;;28.10;76.70;;;;;;8391619;28;19924;-70
2022/08/10 19:43:26;;;;;;;;;;;27.90;76.80;;;;;;8388846;28;19921;-70
2022/08/10 19:47:54;;;;;;;;;;;27.80;76.90;;;;;;8382433;28;19962;-70
2022/08/10 19:52:01;;;;;;;;;;;27.70;77.00;;;;;;8387065;28;19928;-70
2022/08/10 19:56:27;;;;;;;;;;;27.50;77.00;;;;;;8392843;28;19925;-69
2022/08/10 20:00:54;;;;;;;;;;;27.40;77.10;;;;;;8374408;28;19925;-70
2022/08/10 20:05:16;;;;;;;;;;;27.30;77.20;;;;;;8383081;28;20394;-70
2022/08/10 20:09:28;;;;;;;;;;;27.20;77.40;;;;;;8382917;28;20386;-69
2022/08/10 20:13:42;;;;;;;;;;;27.10;77.60;;;;;;8389360;28;19955;-69
2022/08/10 20:17:51;;;;;;;;;;;27.00;77.60;;;;;;8389024;28;19920;-69
2022/08/10 20:22:00;;;;;;;;;;;27.00;77.80;;;;;;8384282;28;19924;-70
2022/08/10 20:26:38;;;;;;;;;;;26.90;77.90;;;;;;8387805;28;20241;-69
2022/08/10 20:30:44;;;;;;;;;;;26.70;77.90;;;;;;8277782;28;19927;-69
2022/08/10 20:34:47;;;;;;;;;;;26.60;77.80;;;;;;8388608;28;19924;-70
2022/08/10 20:38:53;;;;;;;;;;;26.50;78.10;;;;;;8392453;28;19943;-70
2022/08/10 20:43:07;;;;;;;;;;;26.40;77.80;;;;;;8396639;28;20318;-69
2022/08/10 20:47:16;;;;;;;;;;;26.20;78.10;;;;;;8390454;28;19943;-69
2022/08/10 20:51:19;;;;;;;;;;;26.20;77.90;;;;;;8390780;28;19920;-69
2022/08/10 20:55:23;;;;;;;;;;;26.10;78.10;;;;;;8392547;28;20362;-69
2022/08/10 20:59:31;;;;;;;;;;;26.00;78.20;;;;;;8391299;28;19924;-69
2022/08/10 21:03:49;;;;;;;;;;;25.90;78.40;;;;;;8426312;28;20007;-69
2022/08/10 21:08:01;;;;;;;;;;;25.80;78.30;;;;;;8438438;28;19924;-69
2022/08/10 21:12:12;;;;;;;;;;;25.70;78.40;;;;;;8423243;28;19919;-69
2022/08/10 21:16:32;;;;;;;;;;;25.70;78.50;;;;;;8418160;28;19928;-69
2022/08/10 21:20:47;;;;;;;;;;;25.60;78.60;;;;;;8415580;28;19928;-69
2022/08/10 21:24:57;;;;;;;;;;;25.60;78.70;;;;;;8421988;28;19943;-69
2022/08/10 22:53:07;;;;;;;;;;;24.50;79.20;;;;;;8443594;28;19926;-69
2022/08/10 23:01:47;;;;;;;;;;;24.30;79.40;;;;;;8426400;28;19920;-69
2022/08/10 23:06:13;;;;;;;;;;;24.20;79.50;;;;;;8422042;28;24351;-69
2022/08/10 23:10:16;;;;;;;;;;;24.20;79.70;;;;;;8437278;28;19974;-69
2022/08/10 23:22:59;;;;;;;;;;;24.00;80.10;;;;;;8439030;28;19959;-69
2022/08/10 23:27:07;;;;;;;;;;;23.90;80.20;;;;;;8419463;28;19931;-69
2022/08/10 23:31:13;;;;;;;;;;;23.90;80.40;;;;;;8417712;28;19992;-69
2022/08/10 23:35:18;;;;;;;;;;;23.80;80.50;;;;;;8439840;27;19931;-69
2022/08/10 23:39:42;;;;;;;;;;;23.80;80.70;;;;;;8406382;28;19924;-69
2022/08/10 23:43:45;;;;;;;;;;;23.70;80.80;;;;;;8430511;28;19978;-69
2022/08/10 23:48:04;;;;;;;;;;;23.60;81.00;;;;;;8442167;28;19934;-69
2022/08/10 23:52:10;;;;;;;;;;;23.60;81.10;;;;;;8433618;28;19927;-69
2022/08/10 23:56:16;;;;;;;;;;;23.50;81.30;;;;;;8441330;28;19931;-70
